Time;durP1;ratioP1;P1;durP2;ratioP2;P2;SDS_P1;SDS_P2;PMS_P1;PMS_P2;Temp;Humidity;BMP_temperature;BMP_pressure;BME280_temperature;BME280_humidity;BME280_pressure;Samples;Min_cycle;Max_cycle;Signal;HPM_P1;HPM_P2
2022/07/24 00:00:16;;;;;;;6.82;3.65;;;16.90;99.90;;;;;;4941721;28;20055;-55
2022/07/24 00:02:42;;;;;;;4.95;3.58;;;16.90;99.90;;;;;;4942303;28;20048;-54
2022/07/24 00:05:09;;;;;;;4.43;3.30;;;16.80;99.90;;;;;;4941253;28;20608;-54
2022/07/24 00:07:36;;;;;;;5.07;3.25;;;16.80;99.90;;;;;;4910130;28;20101;-54
2022/07/24 00:10:04;;;;;;;5.05;3.80;;;16.80;99.90;;;;;;4940513;28;20135;-54
2022/07/24 00:12:30;;;;;;;5.57;4.25;;;16.80;99.90;;;;;;4991909;28;20048;-56
2022/07/24 00:14:56;;;;;;;5.80;3.95;;;16.80;99.90;;;;;;4938372;28;20181;-56
2022/07/24 00:17:22;;;;;;;6.38;4.07;;;16.80;99.90;;;;;;4911258;28;20036;-55
2022/07/24 00:19:48;;;;;;;6.60;4.68;;;16.80;99.90;;;;;;4938604;28;20195;-54
2022/07/24 00:22:14;;;;;;;7.20;4.13;;;16.70;99.90;;;;;;4939062;28;20036;-55
2022/07/24 00:24:40;;;;;;;4.90;3.35;;;16.70;99.90;;;;;;4922244;28;20044;-55
2022/07/24 00:27:05;;;;;;;6.05;4.22;;;16.70;99.90;;;;;;5023850;28;20043;-52
2022/07/24 00:29:31;;;;;;;9.35;4.57;;;16.70;99.90;;;;;;4911157;28;20517;-55
2022/07/24 00:31:57;;;;;;;8.25;4.43;;;16.70;99.90;;;;;;4941937;28;20056;-55
2022/07/24 00:34:23;;;;;;;6.20;3.83;;;16.70;99.90;;;;;;4997600;28;20069;-54
2022/07/24 00:36:49;;;;;;;7.13;5.18;;;16.70;99.90;;;;;;4907511;28;20040;-54
2022/07/24 00:39:14;;;;;;;6.43;4.47;;;16.70;99.90;;;;;;4916947;28;20079;-53
2022/07/24 00:41:40;;;;;;;8.32;4.65;;;16.70;99.90;;;;;;4941232;28;20043;-53
2022/07/24 00:44:13;;;;;;;5.70;4.13;;;16.70;99.90;;;;;;4993506;28;20070;-54
2022/07/24 00:46:42;;;;;;;6.03;4.35;;;16.70;99.90;;;;;;4910973;28;20063;-55
2022/07/24 00:49:11;;;;;;;7.00;4.85;;;16.70;99.90;;;;;;4997686;28;20235;-51
2022/07/24 00:51:41;;;;;;;5.03;4.53;;;16.70;99.90;;;;;;4945886;28;20481;-55
2022/07/24 00:54:08;;;;;;;5.72;4.57;;;16.70;99.90;;;;;;4899114;28;20193;-55
2022/07/24 00:56:34;;;;;;;7.70;5.00;;;16.60;99.90;;;;;;5013717;28;20043;-54
2022/07/24 00:59:01;;;;;;;8.65;5.38;;;16.60;99.90;;;;;;5009202;28;20610;-55
2022/07/24 01:01:28;;;;;;;6.57;4.82;;;16.70;99.90;;;;;;4913568;28;20525;-54
2022/07/24 01:03:53;;;;;;;6.22;5.38;;;16.60;99.90;;;;;;4906754;28;20079;-54
2022/07/24 01:06:19;;;;;;;6.10;5.28;;;16.70;99.90;;;;;;4947994;28;20079;-54
2022/07/24 01:08:46;;;;;;;6.65;5.45;;;16.70;99.90;;;;;;4888440;28;20043;-55
2022/07/24 01:11:12;;;;;;;5.68;4.72;;;16.60;99.90;;;;;;4916152;28;20052;-55
2022/07/24 01:13:39;;;;;;;6.68;4.85;;;16.60;99.90;;;;;;4940792;28;20516;-55
2022/07/24 01:16:06;;;;;;;5.43;4.90;;;16.60;99.90;;;;;;4938650;28;20051;-55
2022/07/24 01:18:32;;;;;;;9.82;5.63;;;16.60;99.90;;;;;;4947904;28;20047;-55
2022/07/24 01:20:58;;;;;;;6.43;4.93;;;16.60;99.90;;;;;;4958490;28;1076792;-54
2022/07/24 01:23:24;;;;;;;7.10;5.00;;;16.60;99.90;;;;;;4947299;28;20039;-56
2022/07/24 01:25:50;;;;;;;6.07;4.97;;;16.50;99.90;;;;;;4942921;28;20064;-54
2022/07/24 01:28:16;;;;;;;7.53;5.50;;;16.60;99.90;;;;;;5006748;28;20313;-54
2022/07/24 01:30:42;;;;;;;7.35;5.70;;;16.60;99.90;;;;;;4941937;28;20039;-54
2022/07/24 01:33:08;;;;;;;6.45;5.28;;;16.60;99.90;;;;;;4918628;28;20077;-54
2022/07/24 01:35:33;;;;;;;7.55;5.47;;;16.50;99.90;;;;;;4914981;28;20386;-54
2022/07/24 01:37:59;;;;;;;7.00;5.40;;;16.50;99.90;;;;;;4916127;28;20047;-54
2022/07/24 01:40:25;;;;;;;7.18;6.15;;;16.60;99.90;;;;;;4927392;28;20044;-56
2022/07/24 01:42:51;;;;;;;7.07;5.68;;;16.60;99.90;;;;;;4916132;28;20078;-56
2022/07/24 01:45:17;;;;;;;6.95;5.72;;;16.60;99.90;;;;;;4923654;28;20047;-54
2022/07/24 01:47:43;;;;;;;7.10;6.38;;;16.60;99.90;;;;;;4914857;28;20065;-56
2022/07/24 01:50:11;;;;;;;7.38;5.40;;;16.60;99.90;;;;;;4944999;28;20415;-55
2022/07/24 01:52:37;;;;;;;7.65;5.20;;;16.60;99.90;;;;;;4935270;28;20433;-55
2022/07/24 01:55:04;;;;;;;6.32;5.40;;;16.50;99.90;;;;;;5031012;28;20045;-55
2022/07/24 01:57:30;;;;;;;6.53;5.85;;;16.50;99.90;;;;;;4993459;28;20036;-55
2022/07/24 01:59:57;;;;;;;6.25;5.35;;;16.50;99.90;;;;;;4946315;28;20046;-55
2022/07/24 02:02:23;;;;;;;6.85;5.88;;;16.50;99.90;;;;;;4913702;28;20039;-54
2022/07/24 02:04:49;;;;;;;7.13;6.00;;;16.50;99.90;;;;;;4914869;28;20565;-55
2022/07/24 02:07:14;;;;;;;8.10;6.63;;;16.50;99.90;;;;;;4939822;28;20149;-55
2022/07/24 02:09:40;;;;;;;8.13;6.65;;;16.50;99.90;;;;;;4946017;28;20463;-55
2022/07/24 02:12:06;;;;;;;7.15;6.25;;;16.50;99.90;;;;;;4912163;28;20051;-55
2022/07/24 02:14:32;;;;;;;6.78;5.95;;;16.50;99.90;;;;;;4945904;28;20526;-53
2022/07/24 02:16:58;;;;;;;7.78;6.07;;;16.50;99.90;;;;;;4919555;28;20057;-52
2022/07/24 02:19:24;;;;;;;9.57;7.15;;;16.50;99.90;;;;;;5009043;28;21597;-55
2022/07/24 02:21:50;;;;;;;7.90;7.00;;;16.50;99.90;;;;;;4939584;28;20066;-55
2022/07/24 02:24:16;;;;;;;7.28;6.55;;;16.50;99.90;;;;;;4926931;28;20260;-53
2022/07/24 02:26:42;;;;;;;8.25;6.70;;;16.50;99.90;;;;;;4957660;28;20056;-54
2022/07/24 02:29:08;;;;;;;8.60;7.63;;;16.40;99.90;;;;;;4949758;28;20087;-55
2022/07/24 02:31:34;;;;;;;8.50;7.25;;;16.40;99.90;;;;;;4919118;28;20099;-55
2022/07/24 02:34:00;;;;;;;8.55;7.18;;;16.40;99.90;;;;;;5017999;28;20075;-54
2022/07/24 02:36:26;;;;;;;7.80;6.32;;;16.40;99.90;;;;;;5006025;28;20037;-55
2022/07/24 02:38:52;;;;;;;8.38;7.47;;;16.40;99.90;;;;;;4996781;28;20070;-54
2022/07/24 02:41:18;;;;;;;9.80;7.50;;;16.40;99.90;;;;;;4945872;28;20052;-55
2022/07/24 02:43:44;;;;;;;8.57;7.40;;;16.40;99.90;;;;;;5024358;28;20039;-53
2022/07/24 02:46:09;;;;;;;10.90;8.10;;;16.30;99.90;;;;;;5022124;28;20430;-55
2022/07/24 02:48:35;;;;;;;9.73;6.82;;;16.30;99.90;;;;;;4945203;28;20080;-55
2022/07/24 02:51:01;;;;;;;10.93;7.30;;;16.30;99.90;;;;;;4939484;28;20056;-55
2022/07/24 02:53:26;;;;;;;7.82;6.80;;;16.20;99.90;;;;;;4943358;28;20559;-54
2022/07/24 02:55:52;;;;;;;9.27;8.30;;;16.20;99.90;;;;;;4956506;28;22223;-54
2022/07/24 02:58:18;;;;;;;8.48;7.43;;;16.20;99.90;;;;;;5027870;28;20044;-52
2022/07/24 03:00:44;;;;;;;9.13;8.05;;;16.20;99.90;;;;;;4927439;28;20032;-52
2022/07/24 03:03:09;;;;;;;8.65;7.30;;;16.20;99.90;;;;;;4947747;28;21278;-53
2022/07/24 03:05:35;;;;;;;9.40;8.40;;;16.20;99.90;;;;;;5009492;28;20151;-54
2022/07/24 03:08:01;;;;;;;8.02;7.22;;;16.20;99.90;;;;;;4922655;28;20047;-55
2022/07/24 03:10:27;;;;;;;10.02;8.30;;;16.20;99.90;;;;;;4933551;28;20062;-55
2022/07/24 03:12:52;;;;;;;10.63;8.82;;;16.20;99.90;;;;;;4904919;28;22560;-54
2022/07/24 03:15:18;;;;;;;10.38;8.07;;;16.20;99.90;;;;;;4934165;28;20679;-55
2022/07/24 03:17:53;;;;;;;9.27;7.15;;;16.10;99.90;;;;;;4938113;28;20377;-52
2022/07/24 03:20:20;;;;;;;10.43;8.00;;;16.10;99.90;;;;;;4936581;28;20086;-52
2022/07/24 03:22:46;;;;;;;8.88;7.85;;;16.10;99.90;;;;;;4945229;28;20043;-55
2022/07/24 03:25:12;;;;;;;9.60;7.65;;;16.10;99.90;;;;;;4945607;28;20067;-55
2022/07/24 03:27:38;;;;;;;9.88;7.68;;;16.10;99.90;;;;;;4908333;28;20052;-55
2022/07/24 03:30:05;;;;;;;10.68;8.88;;;16.10;99.90;;;;;;4913978;28;20051;-53
2022/07/24 03:32:31;;;;;;;10.10;7.53;;;16.10;99.90;;;;;;4921089;28;20263;-54
2022/07/24 03:34:57;;;;;;;9.88;8.50;;;16.10;99.90;;;;;;4940608;28;20139;-54
2022/07/24 03:37:22;;;;;;;11.57;8.95;;;16.10;99.90;;;;;;4946403;28;20043;-55
2022/07/24 03:39:48;;;;;;;9.80;8.43;;;16.10;99.90;;;;;;4947119;28;20113;-55
2022/07/24 03:42:14;;;;;;;9.73;8.73;;;16.00;99.90;;;;;;4992719;28;20059;-54
2022/07/24 03:44:40;;;;;;;11.27;9.43;;;16.00;99.90;;;;;;4942317;28;20047;-55
2022/07/24 03:47:06;;;;;;;11.60;9.38;;;16.00;99.90;;;;;;5012727;28;23093;-55
2022/07/24 03:49:32;;;;;;;9.50;7.68;;;16.00;99.90;;;;;;4919135;28;20089;-55
2022/07/24 03:51:57;;;;;;;10.35;9.25;;;16.00;99.90;;;;;;4909754;28;20051;-55
2022/07/24 03:54:23;;;;;;;8.90;8.05;;;16.00;99.90;;;;;;4939415;28;20941;-53
2022/07/24 03:56:50;;;;;;;10.98;8.48;;;16.00;99.90;;;;;;4912472;28;20036;-55
2022/07/24 03:59:16;;;;;;;10.27;8.50;;;15.80;99.90;;;;;;4913568;28;20078;-53
2022/07/24 04:01:41;;;;;;;11.85;8.82;;;16.00;99.90;;;;;;4912126;28;20045;-52
2022/07/24 04:04:07;;;;;;;11.93;8.60;;;16.00;99.90;;;;;;4936190;28;20055;-54
2022/07/24 04:06:34;;;;;;;10.07;9.07;;;16.00;99.90;;;;;;4939916;28;20054;-53
2022/07/24 04:09:00;;;;;;;10.63;8.05;;;16.00;99.90;;;;;;4906627;28;20063;-54
2022/07/24 04:11:27;;;;;;;9.27;8.30;;;16.00;99.90;;;;;;4911006;28;20076;-55
2022/07/24 04:13:53;;;;;;;10.52;9.40;;;15.90;99.90;;;;;;5009126;28;20134;-53
2022/07/24 04:16:19;;;;;;;11.02;8.55;;;16.00;99.90;;;;;;4929429;28;20495;-53
2022/07/24 04:18:44;;;;;;;11.18;9.48;;;15.90;99.90;;;;;;4910576;28;20044;-55
2022/07/24 04:21:10;;;;;;;9.77;8.45;;;15.90;99.90;;;;;;5046996;23;20132;-58
2022/07/24 04:23:36;;;;;;;9.65;8.23;;;15.90;99.90;;;;;;5016060;28;20037;-54
2022/07/24 04:26:03;;;;;;;10.50;8.90;;;15.90;99.90;;;;;;5004176;28;20053;-56
2022/07/24 04:28:29;;;;;;;13.52;8.95;;;15.90;99.90;;;;;;5022139;28;20114;-54
2022/07/24 04:30:55;;;;;;;10.45;9.40;;;15.90;99.90;;;;;;5014691;28;20724;-57
2022/07/24 04:33:21;;;;;;;9.57;8.57;;;15.90;99.90;;;;;;5018504;28;20045;-55
2022/07/24 04:35:47;;;;;;;10.43;9.20;;;15.90;99.90;;;;;;5050727;28;20123;-54
2022/07/24 04:38:13;;;;;;;11.15;9.00;;;15.90;99.90;;;;;;5024147;28;20373;-51
2022/07/24 04:40:39;;;;;;;10.70;8.75;;;15.90;99.90;;;;;;5020262;28;20091;-58
2022/07/24 04:43:04;;;;;;;11.52;8.95;;;16.00;99.90;;;;;;5016165;28;20064;-53
2022/07/24 04:45:30;;;;;;;13.13;10.30;;;16.00;99.90;;;;;;5056458;28;20496;-57
2022/07/24 04:47:56;;;;;;;11.02;9.75;;;16.00;99.90;;;;;;5028854;28;20041;-58
2022/07/24 04:50:22;;;;;;;12.27;10.43;;;16.00;99.90;;;;;;5048264;28;20183;-56
2022/07/24 04:52:48;;;;;;;13.52;9.98;;;16.00;99.90;;;;;;5022407;28;20373;-57
2022/07/24 04:55:13;;;;;;;10.73;9.52;;;16.10;99.90;;;;;;5015492;28;20044;-55
2022/07/24 04:57:40;;;;;;;12.13;10.27;;;16.10;99.90;;;;;;5051253;28;20049;-55
2022/07/24 05:00:09;;;;;;;10.93;9.82;;;16.20;99.90;;;;;;5026468;28;20093;-54
2022/07/24 05:02:34;;;;;;;12.95;11.02;;;16.20;99.90;;;;;;5019244;28;20492;-54
2022/07/24 05:05:00;;;;;;;18.75;10.88;;;16.20;99.90;;;;;;5022360;28;20051;-55
2022/07/24 05:07:26;;;;;;;14.32;10.20;;;16.30;99.90;;;;;;5010350;28;20474;-58
2022/07/24 05:09:52;;;;;;;10.63;8.98;;;16.30;99.90;;;;;;5033733;28;20041;-51
2022/07/24 05:12:18;;;;;;;12.35;9.10;;;16.30;99.90;;;;;;5016744;28;20044;-53
2022/07/24 05:14:43;;;;;;;11.38;10.23;;;16.40;99.90;;;;;;5022811;28;20040;-58
2022/07/24 05:17:09;;;;;;;13.43;9.93;;;16.40;99.90;;;;;;5012541;28;20041;-56
2022/07/24 05:19:35;;;;;;;12.05;10.45;;;16.40;99.90;;;;;;5025386;28;20834;-58
2022/07/24 05:22:00;;;;;;;13.77;10.85;;;16.50;99.90;;;;;;5023664;28;20041;-58
2022/07/24 05:24:26;;;;;;;12.65;11.32;;;16.50;99.90;;;;;;5019887;28;20040;-56
2022/07/24 05:26:52;;;;;;;12.65;10.90;;;16.60;99.90;;;;;;5013451;28;20055;-57
2022/07/24 05:29:18;;;;;;;13.95;10.38;;;16.70;99.90;;;;;;5040847;28;20087;-56
2022/07/24 05:31:44;;;;;;;15.18;11.43;;;16.70;99.90;;;;;;5020691;28;20389;-56
2022/07/24 05:34:10;;;;;;;14.95;10.38;;;16.80;99.90;;;;;;5038271;28;20038;-59
2022/07/24 05:36:36;;;;;;;15.10;10.98;;;16.80;99.90;;;;;;5018668;28;20498;-56
2022/07/24 05:39:03;;;;;;;11.25;9.98;;;16.90;99.90;;;;;;5020802;28;20735;-57
2022/07/24 05:41:29;;;;;;;14.15;10.85;;;17.00;99.90;;;;;;5015350;28;20110;-55
2022/07/24 05:43:55;;;;;;;11.93;10.55;;;17.00;99.90;;;;;;5026731;28;20253;-57
2022/07/24 05:46:20;;;;;;;12.13;10.82;;;17.10;99.90;;;;;;5022855;28;20132;-57
2022/07/24 05:48:46;;;;;;;14.65;11.55;;;17.20;99.90;;;;;;5019272;28;20037;-58
2022/07/24 05:51:12;;;;;;;14.48;11.18;;;17.30;99.90;;;;;;5015574;28;20037;-54
2022/07/24 05:53:38;;;;;;;12.77;10.60;;;17.40;99.90;;;;;;5051832;28;20061;-54
2022/07/24 05:56:04;;;;;;;13.40;11.73;;;17.50;99.90;;;;;;5036938;28;20716;-58
2022/07/24 05:58:30;;;;;;;16.70;12.55;;;17.60;99.90;;;;;;5038698;28;20570;-54
2022/07/24 06:00:56;;;;;;;16.48;12.23;;;17.70;99.90;;;;;;5026838;28;20304;-57
2022/07/24 06:03:21;;;;;;;16.15;13.25;;;17.80;99.90;;;;;;5024252;28;20041;-57
2022/07/24 06:05:47;;;;;;;14.95;12.52;;;17.80;99.90;;;;;;5024210;28;20041;-57
2022/07/24 06:08:13;;;;;;;17.75;13.13;;;17.90;99.90;;;;;;5034414;28;20041;-58
2022/07/24 06:10:39;;;;;;;15.82;12.90;;;18.00;99.90;;;;;;5017870;28;20460;-59
2022/07/24 06:13:05;;;;;;;13.68;11.88;;;18.00;99.90;;;;;;5035216;28;20049;-58
2022/07/24 06:15:31;;;;;;;14.70;13.15;;;18.20;99.90;;;;;;5017642;28;20049;-58
2022/07/24 06:17:57;;;;;;;14.82;13.32;;;18.30;99.90;;;;;;5015859;28;20024;-58
2022/07/24 06:20:23;;;;;;;15.82;12.38;;;18.40;99.90;;;;;;5019929;28;20103;-58
2022/07/24 06:22:48;;;;;;;16.65;13.52;;;18.50;99.90;;;;;;5047919;28;20045;-57
2022/07/24 06:25:14;;;;;;;17.40;13.80;;;18.60;99.90;;;;;;5037201;28;20095;-58
2022/07/24 06:27:48;;;;;;;17.08;14.43;;;18.70;99.90;;;;;;5015322;28;20045;-58
2022/07/24 06:30:15;;;;;;;15.20;13.60;;;18.80;99.90;;;;;;5059931;28;20080;-58
2022/07/24 06:32:41;;;;;;;14.02;12.52;;;18.90;99.90;;;;;;5054954;28;20526;-57
2022/07/24 06:35:07;;;;;;;16.67;14.02;;;19.00;99.90;;;;;;5023467;28;20038;-57
2022/07/24 06:37:33;;;;;;;15.93;13.88;;;19.20;99.90;;;;;;5010018;28;20094;-59
2022/07/24 06:39:59;;;;;;;16.58;14.65;;;19.30;99.90;;;;;;5025513;28;20037;-58
2022/07/24 06:42:25;;;;;;;16.02;13.80;;;19.40;99.90;;;;;;5027927;28;20487;-56
2022/07/24 06:44:50;;;;;;;14.50;13.00;;;19.50;99.90;;;;;;5022286;28;20045;-57
2022/07/24 06:47:16;;;;;;;16.40;13.88;;;19.50;99.90;;;;;;5025650;28;20041;-59
2022/07/24 06:49:41;;;;;;;17.52;14.50;;;19.60;99.90;;;;;;5024699;28;20076;-58
2022/07/24 06:52:07;;;;;;;19.13;14.77;;;19.70;99.90;;;;;;5022874;28;20359;-57
2022/07/24 06:54:33;;;;;;;18.73;14.85;;;19.80;99.90;;;;;;5052945;28;20107;-57
2022/07/24 06:56:59;;;;;;;21.20;15.63;;;19.90;99.90;;;;;;5025325;28;20452;-58
2022/07/24 06:59:24;;;;;;;18.10;15.70;;;20.10;99.90;;;;;;5021040;28;20045;-59
2022/07/24 07:01:50;;;;;;;21.45;15.07;;;20.30;99.90;;;;;;5036413;28;20854;-57
2022/07/24 07:04:16;;;;;;;18.17;15.90;;;20.40;99.90;;;;;;5022550;28;20072;-58
2022/07/24 07:06:41;;;;;;;19.83;15.10;;;20.80;99.90;;;;;;5020614;28;20155;-59
2022/07/24 07:09:07;;;;;;;16.05;14.07;;;20.60;99.90;;;;;;5016816;28;20045;-58
2022/07/24 07:11:33;;;;;;;14.90;13.30;;;20.60;99.90;;;;;;5022469;28;20087;-59
2022/07/24 07:14:01;;;;;;;18.50;15.82;;;20.60;99.90;;;;;;5021385;28;20041;-58
2022/07/24 07:16:27;;;;;;;17.33;14.95;;;20.60;99.90;;;;;;5022900;28;20040;-56
2022/07/24 07:18:53;;;;;;;17.67;14.63;;;20.50;99.90;;;;;;5057336;28;20479;-57
2022/07/24 07:21:19;;;;;;;15.02;13.48;;;20.50;99.90;;;;;;5021392;28;20480;-59
2022/07/24 07:23:45;;;;;;;18.05;15.60;;;20.50;99.90;;;;;;5025118;28;20033;-59
2022/07/24 07:26:10;;;;;;;18.27;14.98;;;20.50;99.90;;;;;;5027199;28;20091;-59
2022/07/24 07:28:36;;;;;;;18.08;14.57;;;20.50;99.90;;;;;;5029684;28;20059;-59
2022/07/24 07:31:02;;;;;;;20.55;16.00;;;20.50;99.90;;;;;;5032296;28;20048;-59
2022/07/24 07:33:27;;;;;;;19.23;14.93;;;20.60;99.90;;;;;;5020167;28;20134;-59
2022/07/24 07:35:53;;;;;;;20.00;14.75;;;20.60;99.90;;;;;;5042691;28;20064;-58
2022/07/24 07:38:19;;;;;;;18.83;15.20;;;20.60;99.90;;;;;;5023630;28;20077;-57
2022/07/24 07:40:45;;;;;;;18.23;15.52;;;20.60;99.90;;;;;;5009072;28;20041;-59
2022/07/24 07:43:11;;;;;;;17.00;14.57;;;20.70;99.90;;;;;;5057655;28;20095;-58
2022/07/24 07:45:36;;;;;;;15.63;13.55;;;20.70;99.90;;;;;;5009482;28;20052;-59
2022/07/24 07:48:02;;;;;;;18.67;14.23;;;20.80;99.90;;;;;;5023080;28;20700;-58
2022/07/24 07:50:28;;;;;;;15.32;13.73;;;20.80;99.90;;;;;;5023786;28;20179;-57
2022/07/24 07:52:55;;;;;;;15.05;13.30;;;20.80;99.90;;;;;;5019663;28;20434;-59
2022/07/24 07:55:21;;;;;;;17.02;14.77;;;20.90;99.90;;;;;;5028568;28;20049;-59
2022/07/24 07:57:47;;;;;;;16.80;12.90;;;20.90;99.90;;;;;;5043460;28;20514;-59
2022/07/24 08:00:13;;;;;;;16.90;13.73;;;21.00;99.90;;;;;;5023949;28;20120;-59
2022/07/24 08:02:39;;;;;;;17.55;14.00;;;21.00;99.90;;;;;;5037668;28;20493;-60
2022/07/24 08:05:06;;;;;;;14.20;12.70;;;21.00;99.90;;;;;;5022986;28;20127;-58
2022/07/24 08:07:32;;;;;;;14.88;12.07;;;21.10;99.90;;;;;;5019381;28;20049;-58
2022/07/24 08:09:58;;;;;;;16.90;12.70;;;21.20;99.90;;;;;;5019778;28;20673;-59
2022/07/24 08:12:24;;;;;;;13.57;12.20;;;21.20;99.90;;;;;;5054891;28;20286;-58
2022/07/24 08:14:49;;;;;;;15.27;10.75;;;21.30;99.90;;;;;;5024198;28;20120;-58
2022/07/24 08:17:15;;;;;;;14.32;10.63;;;21.40;99.90;;;;;;5023641;28;20036;-57
2022/07/24 08:19:41;;;;;;;12.73;8.85;;;21.40;99.90;;;;;;5028035;28;20030;-58
2022/07/24 08:22:08;;;;;;;10.27;7.63;;;21.60;99.90;;;;;;5057357;28;20037;-59
2022/07/24 08:24:34;;;;;;;12.27;8.25;;;21.70;99.90;;;;;;5022103;28;20065;-58
2022/07/24 08:26:59;;;;;;;13.27;8.13;;;21.80;99.90;;;;;;5041797;28;20075;-60
2022/07/24 08:29:26;;;;;;;9.57;7.65;;;21.90;99.90;;;;;;5008069;28;20419;-60
2022/07/24 08:31:52;;;;;;;9.27;7.32;;;22.00;99.90;;;;;;5058926;28;20068;-59
2022/07/24 08:34:18;;;;;;;11.30;7.40;;;22.00;99.90;;;;;;5011583;28;20674;-56
2022/07/24 08:36:45;;;;;;;11.10;7.50;;;22.00;99.90;;;;;;5035646;28;20121;-58
2022/07/24 08:39:15;;;;;;;9.27;6.28;;;21.90;99.90;;;;;;5050304;28;21687;-56
2022/07/24 08:41:42;;;;;;;12.98;7.95;;;22.00;99.90;;;;;;5022179;28;20068;-57
2022/07/24 08:44:08;;;;;;;9.85;6.63;;;22.10;99.90;;;;;;5021083;28;20068;-59
2022/07/24 08:46:38;;;;;;;10.23;6.65;;;22.40;99.90;;;;;;5028223;28;20129;-58
2022/07/24 08:49:08;;;;;;;9.70;7.15;;;22.70;99.90;;;;;;5019096;28;21592;-59
2022/07/24 08:51:37;;;;;;;8.50;6.35;;;22.90;99.90;;;;;;5040350;28;20048;-58
2022/07/24 08:54:04;;;;;;;9.77;6.10;;;22.90;99.90;;;;;;5029799;28;20312;-56
2022/07/24 08:56:30;;;;;;;9.07;6.18;;;22.90;99.90;;;;;;5029197;28;20041;-62
2022/07/24 08:58:55;;;;;;;8.85;6.68;;;22.90;99.90;;;;;;5021105;28;20045;-61
2022/07/24 09:01:22;;;;;;;6.80;5.45;;;22.90;99.90;;;;;;5026053;28;20059;-58
2022/07/24 09:03:48;;;;;;;6.65;5.50;;;22.90;99.90;;;;;;5027246;28;20375;-59
2022/07/24 09:06:14;;;;;;;5.60;4.57;;;22.90;99.90;;;;;;5057483;28;20435;-59
2022/07/24 09:09:00;;;;;;;6.43;4.63;;;22.90;99.90;;;;;;5080983;27;20485;-59
2022/07/24 09:11:28;;;;;;;5.82;4.35;;;23.00;99.90;;;;;;5061242;28;20407;-56
2022/07/24 09:16:45;;;;;;;8.80;5.43;;;23.40;99.90;;;;;;5063221;28;20076;-60
2022/07/24 09:19:13;;;;;;;6.97;4.40;;;23.60;99.90;;;;;;5067588;28;20086;-62
2022/07/24 09:21:41;;;;;;;6.07;4.18;;;23.80;99.90;;;;;;5063599;28;20063;-61
2022/07/24 09:24:15;;;;;;;4.80;3.50;;;23.90;99.90;;;;;;5061794;28;20068;-62
2022/07/24 09:26:55;;;;;;;6.32;3.70;;;24.10;99.90;;;;;;5061477;28;20135;-60
2022/07/24 09:29:23;;;;;;;6.70;3.75;;;24.30;99.90;;;;;;5058884;28;20040;-60
2022/07/24 09:31:49;;;;;;;5.63;3.47;;;24.20;99.90;;;;;;5042032;28;20048;-60
2022/07/24 09:34:15;;;;;;;5.60;3.22;;;24.20;99.90;;;;;;5061680;28;20036;-59
2022/07/24 09:36:41;;;;;;;6.05;3.03;;;24.30;99.90;;;;;;5057564;28;20052;-61
2022/07/24 09:39:07;;;;;;;4.25;3.30;;;24.30;99.90;;;;;;5061264;28;20055;-58
2022/07/24 09:41:49;;;;;;;5.30;3.38;;;24.20;99.90;;;;;;5065035;28;20063;-61
2022/07/24 09:44:15;;;;;;;4.57;2.92;;;24.30;99.90;;;;;;5058655;28;20043;-61
2022/07/24 09:46:47;;;;;;;6.00;4.28;;;24.50;99.90;;;;;;5060851;28;20052;-58
2022/07/24 09:49:20;;;;;;;6.32;4.18;;;24.70;99.90;;;;;;5057824;28;20037;-52
2022/07/24 09:52:03;;;;;;;5.38;3.83;;;24.80;99.90;;;;;;5065675;28;20055;-62
2022/07/24 09:54:35;;;;;;;6.80;3.70;;;24.90;99.90;;;;;;5055862;28;20036;-59
2022/07/24 09:57:24;;;;;;;6.18;4.00;;;25.10;99.90;;;;;;5061162;28;20372;-59
2022/07/24 09:59:51;;;;;;;5.97;3.40;;;25.30;99.90;;;;;;5065945;28;20068;-62
2022/07/24 10:02:19;;;;;;;4.60;3.60;;;25.40;99.90;;;;;;5060371;28;20132;-59
2022/07/24 10:04:48;;;;;;;5.35;3.35;;;25.50;99.90;;;;;;5066090;28;20040;-56
2022/07/24 10:07:20;;;;;;;4.97;3.60;;;25.70;99.90;;;;;;5053818;28;20494;-63
2022/07/24 10:09:48;;;;;;;7.10;3.80;;;25.80;99.50;;;;;;5060752;28;20043;-58
2022/07/24 10:12:19;;;;;;;5.22;3.70;;;25.60;99.30;;;;;;5071874;28;20064;-60
2022/07/24 10:14:46;;;;;;;7.85;3.92;;;25.80;99.40;;;;;;5055454;28;20124;-56
2022/07/24 10:17:13;;;;;;;5.60;3.70;;;26.00;99.20;;;;;;5050855;28;20052;-58
2022/07/24 10:19:47;;;;;;;5.65;3.42;;;26.00;99.20;;;;;;5037518;28;20184;-58
2022/07/24 10:22:19;;;;;;;5.13;3.60;;;25.90;98.80;;;;;;5045221;22;20049;-59
2022/07/24 10:25:08;;;;;;;4.28;3.08;;;25.90;99.00;;;;;;5013725;28;20613;-58
2022/07/24 10:27:36;;;;;;;6.82;3.33;;;25.80;99.40;;;;;;5027450;28;20053;-58
2022/07/24 10:30:08;;;;;;;4.22;3.40;;;25.80;99.20;;;;;;5016016;28;20033;-59
2022/07/24 10:32:35;;;;;;;6.65;3.47;;;25.70;99.20;;;;;;5027944;28;20036;-58
2022/07/24 10:35:04;;;;;;;6.00;3.13;;;25.70;99.40;;;;;;5011320;28;20091;-58
2022/07/24 10:37:57;;;;;;;6.30;4.15;;;25.90;99.60;;;;;;5010403;28;20261;-58
2022/07/24 10:40:29;;;;;;;5.93;3.22;;;26.00;99.30;;;;;;5006769;28;20169;-60
2022/07/24 10:43:09;;;;;;;5.18;3.33;;;25.90;99.10;;;;;;5009657;28;20068;-58
2022/07/24 10:45:36;;;;;;;4.75;3.58;;;26.00;99.20;;;;;;4992956;28;20366;-57
2022/07/24 10:48:24;;;;;;;6.25;3.70;;;26.20;99.00;;;;;;4995925;28;20049;-58
2022/07/24 10:51:07;;;;;;;4.60;3.40;;;26.30;98.70;;;;;;5013109;28;20052;-59
2022/07/24 10:53:36;;;;;;;8.43;4.28;;;26.40;98.60;;;;;;4994630;28;20038;-58
2022/07/24 10:56:22;;;;;;;5.88;4.00;;;26.40;98.60;;;;;;5026712;28;20045;-59
2022/07/24 10:58:54;;;;;;;7.57;3.63;;;26.50;98.60;;;;;;5014492;28;20034;-57
2022/07/24 11:01:29;;;;;;;6.83;3.50;;;26.50;98.50;;;;;;5014199;28;20038;-57
2022/07/24 11:03:57;;;;;;;4.45;3.58;;;26.40;98.30;;;;;;5017450;28;20292;-59
2022/07/24 11:06:44;;;;;;;5.68;3.80;;;26.30;98.40;;;;;;5031653;28;20071;-58
2022/07/24 11:09:10;;;;;;;6.22;3.22;;;26.10;98.30;;;;;;5016009;28;20045;-56
2022/07/24 11:12:04;;;;;;;6.60;3.45;;;26.00;98.80;;;;;;5010531;28;20063;-58
2022/07/24 11:14:42;;;;;;;6.20;3.60;;;26.10;98.60;;;;;;5026392;28;20138;-55
2022/07/24 11:17:38;;;;;;;7.40;3.80;;;26.20;98.30;;;;;;5011315;28;20087;-59
2022/07/24 11:20:06;;;;;;;7.10;3.20;;;26.30;98.00;;;;;;5013744;28;20068;-57
2022/07/24 11:22:47;;;;;;;5.25;3.83;;;26.50;98.60;;;;;;4996907;28;20133;-58
2022/07/24 11:25:25;;;;;;;6.78;4.15;;;26.70;98.40;;;;;;4996034;28;21013;-56
2022/07/24 11:27:51;;;;;;;4.55;3.25;;;26.70;97.60;;;;;;4993314;28;20041;-57
2022/07/24 11:30:18;;;;;;;4.32;3.38;;;26.70;98.10;;;;;;5010198;28;20092;-58
2022/07/24 11:32:44;;;;;;;4.85;3.17;;;26.80;98.00;;;;;;5009069;28;20098;-58
2022/07/24 11:35:10;;;;;;;4.65;3.58;;;27.10;98.20;;;;;;5013787;28;20501;-57
2022/07/24 11:37:37;;;;;;;4.28;3.25;;;27.30;97.70;;;;;;5012548;28;20053;-58
2022/07/24 11:40:06;;;;;;;5.82;3.47;;;27.60;97.50;;;;;;5016482;28;20042;-57
2022/07/24 11:42:33;;;;;;;4.65;2.83;;;27.70;96.90;;;;;;5010133;28;20033;-58
2022/07/24 11:44:58;;;;;;;6.43;3.05;;;27.50;96.50;;;;;;5009168;28;20037;-57
2022/07/24 11:47:26;;;;;;;6.30;3.70;;;27.40;96.10;;;;;;5014028;28;20339;-58
2022/07/24 11:49:53;;;;;;;3.90;3.28;;;27.20;96.00;;;;;;5012629;28;20582;-57
2022/07/24 11:52:40;;;;;;;4.13;3.33;;;27.00;96.20;;;;;;5026557;28;20519;-58
2022/07/24 11:55:14;;;;;;;5.72;3.40;;;26.80;96.40;;;;;;5009961;28;20041;-57
2022/07/24 11:57:42;;;;;;;5.88;3.20;;;26.80;97.00;;;;;;4992035;28;20053;-58
2022/07/24 12:00:14;;;;;;;3.95;2.92;;;27.00;97.20;;;;;;5011656;28;20033;-57
2022/07/24 12:02:45;;;;;;;5.22;2.88;;;27.40;96.90;;;;;;4996577;28;20037;-57
2022/07/24 12:05:11;;;;;;;3.65;3.10;;;27.60;96.60;;;;;;4996318;28;20527;-58
2022/07/24 12:07:37;;;;;;;7.07;3.88;;;27.70;96.20;;;;;;4989243;28;20049;-58
2022/07/24 12:10:04;;;;;;;5.35;2.90;;;27.80;95.90;;;;;;5012176;28;20045;-58
2022/07/24 12:12:38;;;;;;;3.80;3.33;;;28.00;96.20;;;;;;4995900;28;20040;-58
2022/07/24 12:15:13;;;;;;;5.13;3.10;;;28.00;95.00;;;;;;5004832;28;20037;-58
2022/07/24 12:18:03;;;;;;;6.70;3.38;;;28.10;95.40;;;;;;5007300;28;23675;-58
2022/07/24 12:20:28;;;;;;;3.92;2.75;;;28.00;94.60;;;;;;5006348;28;20037;-58
2022/07/24 12:22:55;;;;;;;2.83;2.35;;;28.10;94.90;;;;;;5006886;28;20056;-57
2022/07/24 12:25:22;;;;;;;6.10;2.65;;;28.00;94.60;;;;;;4997861;28;20400;-57
2022/07/24 12:27:48;;;;;;;5.30;2.60;;;27.90;95.00;;;;;;5002729;28;20049;-57
2022/07/24 12:30:24;;;;;;;4.57;2.67;;;27.80;95.20;;;;;;5006679;28;20435;-58
2022/07/24 12:33:18;;;;;;;3.25;2.60;;;27.80;94.90;;;;;;5016951;28;20312;-58
2022/07/24 12:36:08;;;;;;;4.05;3.00;;;27.60;94.80;;;;;;5027519;28;20046;-57
2022/07/24 12:38:38;;;;;;;3.60;2.75;;;27.30;94.30;;;;;;5019098;28;20056;-56
2022/07/24 12:41:11;;;;;;;5.68;2.55;;;27.30;94.90;;;;;;5000028;28;20037;-58
2022/07/24 12:43:52;;;;;;;2.40;2.10;;;27.30;95.00;;;;;;5011127;28;20135;-57
2022/07/24 12:46:20;;;;;;;5.40;2.60;;;27.60;95.00;;;;;;5015534;28;20365;-57